Terminal Aerodrome Forecast
Issued by NWS New Orleans/Baton Rouge, LA

Home | Current Version | Previous Version | Text Only | Print | Product List | Glossary On
Versions: 1 2 3 4 5 6 7 8 9 10 11 12 13 14 15 16 17 18 19 20
000
FTUS44 KLIX 112300
TAFNEW
TAF
KNEW 112333Z 1200/1224 04010KT P6SM SCT025 BKN100
      TEMPO 1200/1201 5SM -SHRA BKN030 OVC060
     FM120200 VRB05KT P6SM SCT250
     FM121500 36006KT P6SM SCT035 PROB30 1219/1223 3SM -TSRA
      BKN030CB=

USA.gov is the U.S. government's official web portal to all federal, state and local government web resources and services.